sensor_id;sensor_type;location;lat;lon;timestamp;temperature;humidity
16321;DHT22;8269;50.990;4.494;2022-11-20T00:00:57;3.20;99.90
16321;DHT22;8269;50.990;4.494;2022-11-20T00:03:22;3.20;99.90
16321;DHT22;8269;50.990;4.494;2022-11-20T00:05:48;3.20;99.90
16321;DHT22;8269;50.990;4.494;2022-11-20T00:08:14;3.20;99.90
16321;DHT22;8269;50.990;4.494;2022-11-20T00:10:40;3.20;99.90
16321;DHT22;8269;50.990;4.494;2022-11-20T00:13:06;3.20;99.90
16321;DHT22;8269;50.990;4.494;2022-11-20T00:15:32;3.20;99.90
16321;DHT22;8269;50.990;4.494;2022-11-20T00:17:58;3.20;99.90
16321;DHT22;8269;50.990;4.494;2022-11-20T00:20:24;3.20;99.90
16321;DHT22;8269;50.990;4.494;2022-11-20T00:22:50;3.20;99.90
16321;DHT22;8269;50.990;4.494;2022-11-20T00:25:15;3.20;99.90
16321;DHT22;8269;50.990;4.494;2022-11-20T00:27:41;3.20;99.90
16321;DHT22;8269;50.990;4.494;2022-11-20T00:30:07;3.20;99.90
16321;DHT22;8269;50.990;4.494;2022-11-20T00:32:33;3.20;99.90
16321;DHT22;8269;50.990;4.494;2022-11-20T00:34:58;3.20;99.90
16321;DHT22;8269;50.990;4.494;2022-11-20T00:37:24;3.20;99.90
16321;DHT22;8269;50.990;4.494;2022-11-20T00:39:50;3.20;99.90
16321;DHT22;8269;50.990;4.494;2022-11-20T00:42:15;3.30;99.90
16321;DHT22;8269;50.990;4.494;2022-11-20T00:44:41;3.30;99.90
16321;DHT22;8269;50.990;4.494;2022-11-20T00:47:06;3.40;99.90
16321;DHT22;8269;50.990;4.494;2022-11-20T00:49:32;3.40;99.90
16321;DHT22;8269;50.990;4.494;2022-11-20T00:51:58;3.30;99.90
16321;DHT22;8269;50.990;4.494;2022-11-20T00:54:23;3.30;99.90
16321;DHT22;8269;50.990;4.494;2022-11-20T00:56:49;3.40;99.90
16321;DHT22;8269;50.990;4.494;2022-11-20T00:59:14;3.40;99.90
16321;DHT22;8269;50.990;4.494;2022-11-20T01:01:40;3.40;99.90
16321;DHT22;8269;50.990;4.494;2022-11-20T01:04:05;3.40;99.90
16321;DHT22;8269;50.990;4.494;2022-11-20T01:06:33;3.40;99.90
16321;DHT22;8269;50.990;4.494;2022-11-20T01:09:04;3.30;99.90
16321;DHT22;8269;50.990;4.494;2022-11-20T01:11:44;3.40;99.90
16321;DHT22;8269;50.990;4.494;2022-11-20T01:14:15;3.40;99.90
16321;DHT22;8269;50.990;4.494;2022-11-20T01:16:47;3.30;99.90
16321;DHT22;8269;50.990;4.494;2022-11-20T01:19:19;3.20;99.90
16321;DHT22;8269;50.990;4.494;2022-11-20T01:21:48;3.20;99.90
16321;DHT22;8269;50.990;4.494;2022-11-20T01:24:15;3.30;99.90
16321;DHT22;8269;50.990;4.494;2022-11-20T01:26:43;3.30;99.90
16321;DHT22;8269;50.990;4.494;2022-11-20T01:29:17;3.30;99.90
16321;DHT22;8269;50.990;4.494;2022-11-20T01:31:43;3.40;99.90
16321;DHT22;8269;50.990;4.494;2022-11-20T01:34:12;3.40;99.90
16321;DHT22;8269;50.990;4.494;2022-11-20T01:36:39;3.40;99.90
16321;DHT22;8269;50.990;4.494;2022-11-20T01:39:10;3.40;99.90
16321;DHT22;8269;50.990;4.494;2022-11-20T01:41:35;3.50;99.90
16321;DHT22;8269;50.990;4.494;2022-11-20T01:44:22;3.40;99.90
16321;DHT22;8269;50.990;4.494;2022-11-20T01:47:00;3.50;99.90
16321;DHT22;8269;50.990;4.494;2022-11-20T01:49:37;3.50;99.90
16321;DHT22;8269;50.990;4.494;2022-11-20T01:52:07;3.40;99.90
16321;DHT22;8269;50.990;4.494;2022-11-20T01:54:41;3.30;99.90
16321;DHT22;8269;50.990;4.494;2022-11-20T01:57:10;3.30;99.90
16321;DHT22;8269;50.990;4.494;2022-11-20T01:59:45;3.20;99.90
16321;DHT22;8269;50.990;4.494;2022-11-20T02:02:12;3.20;99.90
16321;DHT22;8269;50.990;4.494;2022-11-20T02:04:38;3.20;99.90
16321;DHT22;8269;50.990;4.494;2022-11-20T02:07:04;3.20;99.90
16321;DHT22;8269;50.990;4.494;2022-11-20T02:09:31;3.20;99.90
16321;DHT22;8269;50.990;4.494;2022-11-20T02:11:57;3.10;99.90
16321;DHT22;8269;50.990;4.494;2022-11-20T02:14:24;3.10;99.90
16321;DHT22;8269;50.990;4.494;2022-11-20T02:16:50;3.10;99.90
16321;DHT22;8269;50.990;4.494;2022-11-20T02:19:29;3.10;99.90
16321;DHT22;8269;50.990;4.494;2022-11-20T02:24:23;3.00;99.90
16321;DHT22;8269;50.990;4.494;2022-11-20T02:26:59;2.90;99.90
16321;DHT22;8269;50.990;4.494;2022-11-20T02:29:26;3.00;99.90
16321;DHT22;8269;50.990;4.494;2022-11-20T02:31:54;3.00;99.90
16321;DHT22;8269;50.990;4.494;2022-11-20T02:34:20;3.00;99.90
16321;DHT22;8269;50.990;4.494;2022-11-20T02:36:46;3.00;99.90
16321;DHT22;8269;50.990;4.494;2022-11-20T02:39:14;2.90;99.90
16321;DHT22;8269;50.990;4.494;2022-11-20T02:41:42;2.90;99.90
16321;DHT22;8269;50.990;4.494;2022-11-20T02:44:07;3.00;99.90
16321;DHT22;8269;50.990;4.494;2022-11-20T02:46:33;3.00;99.90
16321;DHT22;8269;50.990;4.494;2022-11-20T02:49:01;2.90;99.90
16321;DHT22;8269;50.990;4.494;2022-11-20T02:51:27;3.00;99.90
16321;DHT22;8269;50.990;4.494;2022-11-20T02:53:52;3.00;99.90
16321;DHT22;8269;50.990;4.494;2022-11-20T02:56:18;3.00;99.90
16321;DHT22;8269;50.990;4.494;2022-11-20T02:58:44;3.10;99.90
16321;DHT22;8269;50.990;4.494;2022-11-20T03:01:09;3.10;99.90
16321;DHT22;8269;50.990;4.494;2022-11-20T03:03:35;3.10;99.90
16321;DHT22;8269;50.990;4.494;2022-11-20T03:06:00;3.10;99.90
16321;DHT22;8269;50.990;4.494;2022-11-20T03:08:26;3.10;99.90
16321;DHT22;8269;50.990;4.494;2022-11-20T03:10:52;3.20;99.90
16321;DHT22;8269;50.990;4.494;2022-11-20T03:13:17;3.10;99.90
16321;DHT22;8269;50.990;4.494;2022-11-20T03:15:43;3.20;99.90
16321;DHT22;8269;50.990;4.494;2022-11-20T03:18:09;3.30;99.90
16321;DHT22;8269;50.990;4.494;2022-11-20T03:20:34;3.20;99.90
16321;DHT22;8269;50.990;4.494;2022-11-20T03:23:00;3.20;99.90
16321;DHT22;8269;50.990;4.494;2022-11-20T03:25:26;3.20;99.90
16321;DHT22;8269;50.990;4.494;2022-11-20T03:27:52;3.20;99.90
16321;DHT22;8269;50.990;4.494;2022-11-20T03:30:18;3.20;99.90
16321;DHT22;8269;50.990;4.494;2022-11-20T03:32:43;3.20;99.90
16321;DHT22;8269;50.990;4.494;2022-11-20T03:35:09;3.10;99.90
16321;DHT22;8269;50.990;4.494;2022-11-20T03:37:35;3.10;99.90
16321;DHT22;8269;50.990;4.494;2022-11-20T03:40:00;3.10;99.90
16321;DHT22;8269;50.990;4.494;2022-11-20T03:42:26;3.10;99.90
16321;DHT22;8269;50.990;4.494;2022-11-20T03:45:10;3.10;99.90
16321;DHT22;8269;50.990;4.494;2022-11-20T03:47:36;3.10;99.90
16321;DHT22;8269;50.990;4.494;2022-11-20T03:50:02;3.10;99.90
16321;DHT22;8269;50.990;4.494;2022-11-20T03:52:28;3.10;99.90
16321;DHT22;8269;50.990;4.494;2022-11-20T03:54:54;3.20;99.90
16321;DHT22;8269;50.990;4.494;2022-11-20T03:57:19;3.20;99.90
16321;DHT22;8269;50.990;4.494;2022-11-20T03:59:45;3.20;99.90
16321;DHT22;8269;50.990;4.494;2022-11-20T04:02:10;3.20;99.90
16321;DHT22;8269;50.990;4.494;2022-11-20T04:04:36;3.20;99.90
16321;DHT22;8269;50.990;4.494;2022-11-20T04:07:02;3.20;99.90
16321;DHT22;8269;50.990;4.494;2022-11-20T04:09:28;3.20;99.90
16321;DHT22;8269;50.990;4.494;2022-11-20T04:11:53;3.20;99.90
16321;DHT22;8269;50.990;4.494;2022-11-20T04:14:19;3.20;99.90
16321;DHT22;8269;50.990;4.494;2022-11-20T04:16:45;3.20;99.90
16321;DHT22;8269;50.990;4.494;2022-11-20T04:19:12;3.30;99.90
16321;DHT22;8269;50.990;4.494;2022-11-20T04:21:38;3.30;99.90
16321;DHT22;8269;50.990;4.494;2022-11-20T04:24:04;3.30;99.90
16321;DHT22;8269;50.990;4.494;2022-11-20T04:26:30;3.30;99.90
16321;DHT22;8269;50.990;4.494;2022-11-20T04:28:57;3.30;99.90
16321;DHT22;8269;50.990;4.494;2022-11-20T04:31:27;3.30;99.90
16321;DHT22;8269;50.990;4.494;2022-11-20T04:33:53;3.30;99.90
16321;DHT22;8269;50.990;4.494;2022-11-20T04:36:23;3.20;99.90
16321;DHT22;8269;50.990;4.494;2022-11-20T04:38:54;3.30;99.90
16321;DHT22;8269;50.990;4.494;2022-11-20T04:41:23;3.30;99.90
16321;DHT22;8269;50.990;4.494;2022-11-20T04:43:55;3.20;99.90
16321;DHT22;8269;50.990;4.494;2022-11-20T04:46:25;3.20;99.90
16321;DHT22;8269;50.990;4.494;2022-11-20T04:48:51;3.10;99.90
16321;DHT22;8269;50.990;4.494;2022-11-20T04:51:16;3.00;99.90
16321;DHT22;8269;50.990;4.494;2022-11-20T04:53:42;3.00;99.90
16321;DHT22;8269;50.990;4.494;2022-11-20T04:56:09;3.00;99.90
16321;DHT22;8269;50.990;4.494;2022-11-20T04:58:36;3.10;99.90
16321;DHT22;8269;50.990;4.494;2022-11-20T05:01:22;3.00;99.90
16321;DHT22;8269;50.990;4.494;2022-11-20T05:03:49;3.10;99.90
16321;DHT22;8269;50.990;4.494;2022-11-20T05:06:17;3.10;99.90
16321;DHT22;8269;50.990;4.494;2022-11-20T05:08:43;3.20;99.90
16321;DHT22;8269;50.990;4.494;2022-11-20T05:11:18;3.20;99.90
16321;DHT22;8269;50.990;4.494;2022-11-20T05:13:43;3.20;99.90
16321;DHT22;8269;50.990;4.494;2022-11-20T05:16:12;3.20;99.90
16321;DHT22;8269;50.990;4.494;2022-11-20T05:18:38;3.20;99.90
16321;DHT22;8269;50.990;4.494;2022-11-20T05:21:05;3.20;99.90
16321;DHT22;8269;50.990;4.494;2022-11-20T05:23:31;3.30;99.90
16321;DHT22;8269;50.990;4.494;2022-11-20T05:25:57;3.30;99.90
16321;DHT22;8269;50.990;4.494;2022-11-20T05:28:24;3.30;99.90
16321;DHT22;8269;50.990;4.494;2022-11-20T05:30:50;3.30;99.90
16321;DHT22;8269;50.990;4.494;2022-11-20T05:33:16;3.30;99.90
16321;DHT22;8269;50.990;4.494;2022-11-20T05:35:42;3.40;99.90
16321;DHT22;8269;50.990;4.494;2022-11-20T05:38:08;3.40;99.90
16321;DHT22;8269;50.990;4.494;2022-11-20T05:40:33;3.40;99.90
16321;DHT22;8269;50.990;4.494;2022-11-20T05:42:59;3.50;99.90
16321;DHT22;8269;50.990;4.494;2022-11-20T05:45:25;3.50;99.90
16321;DHT22;8269;50.990;4.494;2022-11-20T05:47:51;3.40;99.90
16321;DHT22;8269;50.990;4.494;2022-11-20T05:50:16;3.40;99.90
16321;DHT22;8269;50.990;4.494;2022-11-20T05:52:42;3.40;99.90
16321;DHT22;8269;50.990;4.494;2022-11-20T05:55:08;3.40;99.90
16321;DHT22;8269;50.990;4.494;2022-11-20T05:57:33;3.30;99.90
16321;DHT22;8269;50.990;4.494;2022-11-20T05:59:59;3.30;99.90
16321;DHT22;8269;50.990;4.494;2022-11-20T06:02:25;3.20;99.90
16321;DHT22;8269;50.990;4.494;2022-11-20T06:04:50;3.20;99.90
16321;DHT22;8269;50.990;4.494;2022-11-20T06:07:16;3.20;99.90
16321;DHT22;8269;50.990;4.494;2022-11-20T06:09:41;3.10;99.90
16321;DHT22;8269;50.990;4.494;2022-11-20T06:12:07;3.10;99.90
16321;DHT22;8269;50.990;4.494;2022-11-20T06:14:33;3.00;99.90
16321;DHT22;8269;50.990;4.494;2022-11-20T06:16:59;3.10;99.90
16321;DHT22;8269;50.990;4.494;2022-11-20T06:19:25;3.10;99.90
16321;DHT22;8269;50.990;4.494;2022-11-20T06:21:51;3.10;99.90
16321;DHT22;8269;50.990;4.494;2022-11-20T06:24:17;3.10;99.90
16321;DHT22;8269;50.990;4.494;2022-11-20T06:26:43;3.20;99.90
16321;DHT22;8269;50.990;4.494;2022-11-20T06:29:08;3.20;99.90
16321;DHT22;8269;50.990;4.494;2022-11-20T06:31:34;3.20;99.90
16321;DHT22;8269;50.990;4.494;2022-11-20T06:34:06;3.20;99.90
16321;DHT22;8269;50.990;4.494;2022-11-20T06:36:32;3.20;99.90
16321;DHT22;8269;50.990;4.494;2022-11-20T06:38:58;3.20;99.90
16321;DHT22;8269;50.990;4.494;2022-11-20T06:41:24;3.30;99.90
16321;DHT22;8269;50.990;4.494;2022-11-20T06:43:51;3.30;99.90
16321;DHT22;8269;50.990;4.494;2022-11-20T06:46:18;3.30;99.90
16321;DHT22;8269;50.990;4.494;2022-11-20T06:48:44;3.40;99.90
16321;DHT22;8269;50.990;4.494;2022-11-20T06:51:10;3.40;99.90
16321;DHT22;8269;50.990;4.494;2022-11-20T06:53:37;3.40;99.90
16321;DHT22;8269;50.990;4.494;2022-11-20T06:56:03;3.40;99.90
16321;DHT22;8269;50.990;4.494;2022-11-20T06:58:31;3.40;99.90
16321;DHT22;8269;50.990;4.494;2022-11-20T07:01:11;3.40;99.90
16321;DHT22;8269;50.990;4.494;2022-11-20T07:03:38;3.50;99.90
16321;DHT22;8269;50.990;4.494;2022-11-20T07:06:04;3.50;99.90
16321;DHT22;8269;50.990;4.494;2022-11-20T07:10:58;3.50;99.90
16321;DHT22;8269;50.990;4.494;2022-11-20T07:13:25;3.60;99.90
16321;DHT22;8269;50.990;4.494;2022-11-20T07:15:51;3.60;99.90
16321;DHT22;8269;50.990;4.494;2022-11-20T07:18:16;3.70;99.90
16321;DHT22;8269;50.990;4.494;2022-11-20T07:20:42;3.70;99.90
16321;DHT22;8269;50.990;4.494;2022-11-20T07:23:07;3.70;99.90
16321;DHT22;8269;50.990;4.494;2022-11-20T07:25:33;3.70;99.90
16321;DHT22;8269;50.990;4.494;2022-11-20T07:27:59;3.70;99.90
16321;DHT22;8269;50.990;4.494;2022-11-20T07:30:26;3.80;99.90
16321;DHT22;8269;50.990;4.494;2022-11-20T07:32:52;3.80;99.90
16321;DHT22;8269;50.990;4.494;2022-11-20T07:35:18;3.70;99.90
16321;DHT22;8269;50.990;4.494;2022-11-20T07:37:44;3.80;99.90
16321;DHT22;8269;50.990;4.494;2022-11-20T07:40:15;3.90;99.90
16321;DHT22;8269;50.990;4.494;2022-11-20T07:42:54;3.90;99.90
16321;DHT22;8269;50.990;4.494;2022-11-20T07:45:21;3.90;99.90
16321;DHT22;8269;50.990;4.494;2022-11-20T07:47:47;3.90;99.90
16321;DHT22;8269;50.990;4.494;2022-11-20T07:50:15;4.00;99.90
16321;DHT22;8269;50.990;4.494;2022-11-20T07:52:40;4.00;99.90
16321;DHT22;8269;50.990;4.494;2022-11-20T07:55:07;4.00;99.90
16321;DHT22;8269;50.990;4.494;2022-11-20T07:57:33;4.10;99.90
16321;DHT22;8269;50.990;4.494;2022-11-20T07:59:58;4.10;99.90
16321;DHT22;8269;50.990;4.494;2022-11-20T08:02:24;4.20;99.90
16321;DHT22;8269;50.990;4.494;2022-11-20T08:04:51;4.20;99.90
16321;DHT22;8269;50.990;4.494;2022-11-20T08:07:17;4.20;99.90
16321;DHT22;8269;50.990;4.494;2022-11-20T08:09:42;4.20;99.90
16321;DHT22;8269;50.990;4.494;2022-11-20T08:12:08;4.20;99.90
16321;DHT22;8269;50.990;4.494;2022-11-20T08:15:00;4.20;99.90
16321;DHT22;8269;50.990;4.494;2022-11-20T08:17:26;4.30;99.90
16321;DHT22;8269;50.990;4.494;2022-11-20T08:19:51;4.30;99.90
16321;DHT22;8269;50.990;4.494;2022-11-20T08:22:17;4.40;99.90
16321;DHT22;8269;50.990;4.494;2022-11-20T08:24:43;4.40;99.90
16321;DHT22;8269;50.990;4.494;2022-11-20T08:27:08;4.50;99.90
16321;DHT22;8269;50.990;4.494;2022-11-20T08:29:34;4.50;99.90
16321;DHT22;8269;50.990;4.494;2022-11-20T08:31:59;4.50;99.90
16321;DHT22;8269;50.990;4.494;2022-11-20T08:34:25;4.50;99.90
16321;DHT22;8269;50.990;4.494;2022-11-20T08:36:50;4.50;99.90
16321;DHT22;8269;50.990;4.494;2022-11-20T08:39:16;4.50;99.90
16321;DHT22;8269;50.990;4.494;2022-11-20T08:41:41;4.50;99.90
16321;DHT22;8269;50.990;4.494;2022-11-20T08:44:07;4.60;99.90
16321;DHT22;8269;50.990;4.494;2022-11-20T08:46:38;4.60;99.90
16321;DHT22;8269;50.990;4.494;2022-11-20T08:49:07;4.60;99.90
16321;DHT22;8269;50.990;4.494;2022-11-20T08:51:33;4.70;99.90
16321;DHT22;8269;50.990;4.494;2022-11-20T08:53:59;4.70;99.90
16321;DHT22;8269;50.990;4.494;2022-11-20T08:56:25;4.70;99.90
16321;DHT22;8269;50.990;4.494;2022-11-20T08:58:51;4.70;99.90
16321;DHT22;8269;50.990;4.494;2022-11-20T09:01:21;4.80;99.90
16321;DHT22;8269;50.990;4.494;2022-11-20T09:03:47;4.80;99.90
16321;DHT22;8269;50.990;4.494;2022-11-20T09:06:13;4.80;99.90
16321;DHT22;8269;50.990;4.494;2022-11-20T09:08:39;4.80;99.90
16321;DHT22;8269;50.990;4.494;2022-11-20T09:11:05;4.80;99.90
16321;DHT22;8269;50.990;4.494;2022-11-20T09:13:32;4.80;99.90
16321;DHT22;8269;50.990;4.494;2022-11-20T09:16:03;4.80;99.90
16321;DHT22;8269;50.990;4.494;2022-11-20T09:18:30;4.90;99.90
16321;DHT22;8269;50.990;4.494;2022-11-20T09:20:59;4.90;99.90
16321;DHT22;8269;50.990;4.494;2022-11-20T09:23:25;5.00;99.90
16321;DHT22;8269;50.990;4.494;2022-11-20T09:25:51;5.10;99.90
16321;DHT22;8269;50.990;4.494;2022-11-20T09:28:18;5.10;99.90
16321;DHT22;8269;50.990;4.494;2022-11-20T09:30:44;5.20;99.90
16321;DHT22;8269;50.990;4.494;2022-11-20T09:33:09;5.30;99.90
16321;DHT22;8269;50.990;4.494;2022-11-20T09:35:35;5.30;99.90
16321;DHT22;8269;50.990;4.494;2022-11-20T09:38:07;5.30;99.90
16321;DHT22;8269;50.990;4.494;2022-11-20T09:40:35;5.30;99.90
16321;DHT22;8269;50.990;4.494;2022-11-20T09:56:26;5.70;99.90
16321;DHT22;8269;50.990;4.494;2022-11-20T09:58:53;5.70;99.90
16321;DHT22;8269;50.990;4.494;2022-11-20T10:01:22;5.70;99.90
16321;DHT22;8269;50.990;4.494;2022-11-20T10:06:19;5.70;99.90
16321;DHT22;8269;50.990;4.494;2022-11-20T10:09:48;5.80;99.90
16321;DHT22;8269;50.990;4.494;2022-11-20T10:25:49;6.10;99.90
16321;DHT22;8269;50.990;4.494;2022-11-20T10:31:17;6.10;99.90
16321;DHT22;8269;50.990;4.494;2022-11-20T10:33:47;6.20;99.90
16321;DHT22;8269;50.990;4.494;2022-11-20T10:36:23;6.30;99.90
16321;DHT22;8269;50.990;4.494;2022-11-20T10:38:56;6.30;99.90
16321;DHT22;8269;50.990;4.494;2022-11-20T10:41:27;6.30;99.90
16321;DHT22;8269;50.990;4.494;2022-11-20T10:44:17;6.40;99.90
16321;DHT22;8269;50.990;4.494;2022-11-20T10:47:05;6.50;99.90
16321;DHT22;8269;50.990;4.494;2022-11-20T10:49:35;6.70;99.90
16321;DHT22;8269;50.990;4.494;2022-11-20T10:55:25;6.90;99.90
16321;DHT22;8269;50.990;4.494;2022-11-20T11:00:31;7.00;99.90
16321;DHT22;8269;50.990;4.494;2022-11-20T11:02:57;7.20;99.90
16321;DHT22;8269;50.990;4.494;2022-11-20T11:05:39;7.20;99.90
16321;DHT22;8269;50.990;4.494;2022-11-20T11:08:12;7.40;99.90
16321;DHT22;8269;50.990;4.494;2022-11-20T11:10:55;7.50;99.90
16321;DHT22;8269;50.990;4.494;2022-11-20T11:13:27;7.50;99.90
16321;DHT22;8269;50.990;4.494;2022-11-20T11:15:53;7.60;99.90
16321;DHT22;8269;50.990;4.494;2022-11-20T11:18:28;7.60;99.90
16321;DHT22;8269;50.990;4.494;2022-11-20T11:20:56;7.60;99.90
16321;DHT22;8269;50.990;4.494;2022-11-20T11:23:34;7.70;99.90
16321;DHT22;8269;50.990;4.494;2022-11-20T11:26:03;7.80;99.90
16321;DHT22;8269;50.990;4.494;2022-11-20T11:28:29;7.80;99.90
16321;DHT22;8269;50.990;4.494;2022-11-20T11:30:55;7.90;99.90
16321;DHT22;8269;50.990;4.494;2022-11-20T11:36:02;8.00;99.90
16321;DHT22;8269;50.990;4.494;2022-11-20T11:38:30;8.10;99.90
16321;DHT22;8269;50.990;4.494;2022-11-20T11:40:57;8.20;99.90
16321;DHT22;8269;50.990;4.494;2022-11-20T11:43:34;8.30;99.90
16321;DHT22;8269;50.990;4.494;2022-11-20T11:49:17;8.40;99.90
16321;DHT22;8269;50.990;4.494;2022-11-20T11:52:13;8.40;99.90
16321;DHT22;8269;50.990;4.494;2022-11-20T11:54:49;8.50;99.90
16321;DHT22;8269;50.990;4.494;2022-11-20T12:00:16;8.60;99.90
16321;DHT22;8269;50.990;4.494;2022-11-20T12:05:23;8.70;99.90
16321;DHT22;8269;50.990;4.494;2022-11-20T12:07:56;8.70;99.90
16321;DHT22;8269;50.990;4.494;2022-11-20T12:10:38;8.60;99.90
16321;DHT22;8269;50.990;4.494;2022-11-20T12:15:42;8.50;99.90
16321;DHT22;8269;50.990;4.494;2022-11-20T12:18:15;8.40;99.90
16321;DHT22;8269;50.990;4.494;2022-11-20T12:20:48;8.30;99.90
16321;DHT22;8269;50.990;4.494;2022-11-20T12:23:35;8.30;99.90
16321;DHT22;8269;50.990;4.494;2022-11-20T12:29:08;8.20;99.90
16321;DHT22;8269;50.990;4.494;2022-11-20T12:31:52;8.10;99.90
16321;DHT22;8269;50.990;4.494;2022-11-20T12:34:51;8.10;99.90
16321;DHT22;8269;50.990;4.494;2022-11-20T12:37:41;8.00;99.90
16321;DHT22;8269;50.990;4.494;2022-11-20T12:42:59;7.80;99.90
16321;DHT22;8269;50.990;4.494;2022-11-20T12:45:56;7.70;99.90
16321;DHT22;8269;50.990;4.494;2022-11-20T12:51:18;7.60;99.90
16321;DHT22;8269;50.990;4.494;2022-11-20T12:57:03;7.50;99.90
16321;DHT22;8269;50.990;4.494;2022-11-20T13:08:02;7.40;99.90
16321;DHT22;8269;50.990;4.494;2022-11-20T13:10:39;7.40;99.90
16321;DHT22;8269;50.990;4.494;2022-11-20T13:18:51;7.50;99.90
16321;DHT22;8269;50.990;4.494;2022-11-20T13:21:20;7.60;99.90
16321;DHT22;8269;50.990;4.494;2022-11-20T13:23:46;7.60;99.90
16321;DHT22;8269;50.990;4.494;2022-11-20T13:26:22;7.70;99.90
16321;DHT22;8269;50.990;4.494;2022-11-20T13:29:02;7.70;99.90
16321;DHT22;8269;50.990;4.494;2022-11-20T13:31:33;7.70;99.90
16321;DHT22;8269;50.990;4.494;2022-11-20T13:34:01;7.70;99.90
16321;DHT22;8269;50.990;4.494;2022-11-20T13:36:32;7.60;99.90
16321;DHT22;8269;50.990;4.494;2022-11-20T13:38:58;7.70;99.90
16321;DHT22;8269;50.990;4.494;2022-11-20T13:41:34;7.60;99.90
16321;DHT22;8269;50.990;4.494;2022-11-20T13:46:46;7.60;99.90
16321;DHT22;8269;50.990;4.494;2022-11-20T13:49:31;7.50;99.90
16321;DHT22;8269;50.990;4.494;2022-11-20T14:01:14;7.40;99.90
16321;DHT22;8269;50.990;4.494;2022-11-20T14:03:36;7.30;99.90
16321;DHT22;8269;50.990;4.494;2022-11-20T14:06:14;7.30;99.90
16321;DHT22;8269;50.990;4.494;2022-11-20T14:08:48;7.30;99.90
16321;DHT22;8269;50.990;4.494;2022-11-20T14:11:17;7.30;99.90
16321;DHT22;8269;50.990;4.494;2022-11-20T14:16:31;7.40;99.90
16321;DHT22;8269;50.990;4.494;2022-11-20T14:18:58;7.40;99.90
16321;DHT22;8269;50.990;4.494;2022-11-20T14:21:42;7.40;99.90
16321;DHT22;8269;50.990;4.494;2022-11-20T14:24:11;7.40;99.90
16321;DHT22;8269;50.990;4.494;2022-11-20T14:26:41;7.50;99.90
16321;DHT22;8269;50.990;4.494;2022-11-20T14:29:14;7.40;99.90
16321;DHT22;8269;50.990;4.494;2022-11-20T14:31:40;7.50;99.90
16321;DHT22;8269;50.990;4.494;2022-11-20T14:34:18;7.40;99.90
16321;DHT22;8269;50.990;4.494;2022-11-20T14:36:45;7.50;99.90
16321;DHT22;8269;50.990;4.494;2022-11-20T14:39:12;7.50;99.90
16321;DHT22;8269;50.990;4.494;2022-11-20T14:41:51;7.50;99.90
16321;DHT22;8269;50.990;4.494;2022-11-20T14:44:17;7.50;99.90
16321;DHT22;8269;50.990;4.494;2022-11-20T14:46:45;7.50;99.90
16321;DHT22;8269;50.990;4.494;2022-11-20T14:49:11;7.50;99.90
16321;DHT22;8269;50.990;4.494;2022-11-20T14:51:39;7.50;99.90
16321;DHT22;8269;50.990;4.494;2022-11-20T14:56:39;7.60;99.90
16321;DHT22;8269;50.990;4.494;2022-11-20T14:59:05;7.60;99.90
16321;DHT22;8269;50.990;4.494;2022-11-20T15:01:32;7.60;99.90
16321;DHT22;8269;50.990;4.494;2022-11-20T15:04:07;7.60;99.90
16321;DHT22;8269;50.990;4.494;2022-11-20T15:06:35;7.60;99.90
16321;DHT22;8269;50.990;4.494;2022-11-20T15:09:03;7.50;99.90
16321;DHT22;8269;50.990;4.494;2022-11-20T15:11:34;7.50;99.90
16321;DHT22;8269;50.990;4.494;2022-11-20T15:14:06;7.50;99.90
16321;DHT22;8269;50.990;4.494;2022-11-20T15:16:32;7.50;99.90
16321;DHT22;8269;50.990;4.494;2022-11-20T15:18:58;7.60;99.90
16321;DHT22;8269;50.990;4.494;2022-11-20T15:21:25;7.60;99.90
16321;DHT22;8269;50.990;4.494;2022-11-20T15:23:50;7.60;99.90
16321;DHT22;8269;50.990;4.494;2022-11-20T15:26:27;7.60;99.90
16321;DHT22;8269;50.990;4.494;2022-11-20T15:28:53;7.70;99.90
16321;DHT22;8269;50.990;4.494;2022-11-20T15:31:21;7.70;99.90
16321;DHT22;8269;50.990;4.494;2022-11-20T15:33:48;7.70;99.90
16321;DHT22;8269;50.990;4.494;2022-11-20T15:36:14;7.70;99.90
16321;DHT22;8269;50.990;4.494;2022-11-20T15:38:40;7.80;99.90
16321;DHT22;8269;50.990;4.494;2022-11-20T15:41:06;7.80;99.90
16321;DHT22;8269;50.990;4.494;2022-11-20T15:43:32;7.80;99.90
16321;DHT22;8269;50.990;4.494;2022-11-20T15:46:04;7.80;99.90
16321;DHT22;8269;50.990;4.494;2022-11-20T15:48:54;7.80;99.90
16321;DHT22;8269;50.990;4.494;2022-11-20T15:51:26;7.90;99.90
16321;DHT22;8269;50.990;4.494;2022-11-20T15:53:52;7.90;99.90
16321;DHT22;8269;50.990;4.494;2022-11-20T15:56:18;7.90;99.90
16321;DHT22;8269;50.990;4.494;2022-11-20T15:58:43;7.90;99.90
16321;DHT22;8269;50.990;4.494;2022-11-20T16:01:14;7.90;99.90
16321;DHT22;8269;50.990;4.494;2022-11-20T16:03:50;7.90;99.90
16321;DHT22;8269;50.990;4.494;2022-11-20T16:06:15;7.90;99.90
16321;DHT22;8269;50.990;4.494;2022-11-20T16:08:44;7.90;99.90
16321;DHT22;8269;50.990;4.494;2022-11-20T16:11:15;7.80;99.90
16321;DHT22;8269;50.990;4.494;2022-11-20T16:13:42;7.80;99.90
16321;DHT22;8269;50.990;4.494;2022-11-20T16:16:46;7.80;99.90
16321;DHT22;8269;50.990;4.494;2022-11-20T16:19:14;7.80;99.90
16321;DHT22;8269;50.990;4.494;2022-11-20T16:21:40;7.80;99.90
16321;DHT22;8269;50.990;4.494;2022-11-20T16:24:08;7.80;99.90
16321;DHT22;8269;50.990;4.494;2022-11-20T16:26:34;7.80;99.90
16321;DHT22;8269;50.990;4.494;2022-11-20T16:29:01;7.80;99.90
16321;DHT22;8269;50.990;4.494;2022-11-20T16:31:28;7.80;99.90
16321;DHT22;8269;50.990;4.494;2022-11-20T16:34:00;7.80;99.90
16321;DHT22;8269;50.990;4.494;2022-11-20T16:38:56;7.80;99.90
16321;DHT22;8269;50.990;4.494;2022-11-20T16:41:23;7.80;99.90
16321;DHT22;8269;50.990;4.494;2022-11-20T16:43:55;7.80;99.90
16321;DHT22;8269;50.990;4.494;2022-11-20T16:46:26;7.80;99.90
16321;DHT22;8269;50.990;4.494;2022-11-20T16:48:57;7.80;99.90
16321;DHT22;8269;50.990;4.494;2022-11-20T16:51:24;7.80;99.90
16321;DHT22;8269;50.990;4.494;2022-11-20T16:53:52;7.80;99.90
16321;DHT22;8269;50.990;4.494;2022-11-20T16:56:22;7.90;99.90
16321;DHT22;8269;50.990;4.494;2022-11-20T16:58:49;7.90;99.90
16321;DHT22;8269;50.990;4.494;2022-11-20T17:01:17;8.00;99.90
16321;DHT22;8269;50.990;4.494;2022-11-20T17:03:45;8.10;99.90
16321;DHT22;8269;50.990;4.494;2022-11-20T17:06:17;8.00;99.90
16321;DHT22;8269;50.990;4.494;2022-11-20T17:08:44;8.00;99.90
16321;DHT22;8269;50.990;4.494;2022-11-20T17:11:12;8.10;99.90
16321;DHT22;8269;50.990;4.494;2022-11-20T17:13:38;8.10;99.90
16321;DHT22;8269;50.990;4.494;2022-11-20T17:16:07;8.10;99.90
16321;DHT22;8269;50.990;4.494;2022-11-20T17:18:33;8.10;99.90
16321;DHT22;8269;50.990;4.494;2022-11-20T17:20:59;8.10;99.90
16321;DHT22;8269;50.990;4.494;2022-11-20T17:23:31;8.10;99.90
16321;DHT22;8269;50.990;4.494;2022-11-20T17:26:16;7.90;99.90
16321;DHT22;8269;50.990;4.494;2022-11-20T17:28:42;7.90;99.90
16321;DHT22;8269;50.990;4.494;2022-11-20T17:31:09;7.80;99.90
16321;DHT22;8269;50.990;4.494;2022-11-20T17:33:35;7.60;99.90
16321;DHT22;8269;50.990;4.494;2022-11-20T17:36:01;7.60;99.90
16321;DHT22;8269;50.990;4.494;2022-11-20T17:38:26;7.60;99.90
16321;DHT22;8269;50.990;4.494;2022-11-20T17:40:52;7.50;99.90
16321;DHT22;8269;50.990;4.494;2022-11-20T17:43:18;7.40;99.90
16321;DHT22;8269;50.990;4.494;2022-11-20T17:45:43;7.40;99.90
16321;DHT22;8269;50.990;4.494;2022-11-20T17:48:09;7.70;99.90
16321;DHT22;8269;50.990;4.494;2022-11-20T17:50:35;7.50;99.90
16321;DHT22;8269;50.990;4.494;2022-11-20T17:53:00;7.40;99.90
16321;DHT22;8269;50.990;4.494;2022-11-20T17:55:26;7.50;99.90